Mc Comb/Pike County/John E Lewis Field
KMCB : now visible

Airfield :











YOU CAN JOIN US ON...

 
LOGIN :

Register | Disclaimer

   EN    FR    IT 

 









Legend :    VFR   Marginal VFR   IFR   Intensive IFR   Very Intensive IFR
Visi :
Ceiling :
>= 8 km
>= 3000ft
5 to 8 km
1000 to 3000 ft
1500m to 5 km
500 to 1000 ft
800 to 1500m
200 to 500 ft
< 800m
< 200 ft
Symbols :   Thunderstorms  Fog  Heavy snow  Heavy precipitations  Wind > 20 kt






- Airport Elevation : 413 ft


KMCB - Mc Comb/Pike County/John E Lewis Field

CURRENT METAR :
  • 280253Z AUTO 00000KT 10SM BKN006 OVC011 24/23 A2997 RMK AO2 RAB27E42 SLP143 P0000 60003 T02440233 51004

EXPIRED METARs :
  • 280231Z AUTO 00000KT 10SM -RA SCT009 BKN014 OVC047 24/23 A2997 RMK AO2 RAB27 P0000 T02440233
  • 280218Z AUTO 08003KT 8SM FEW006 BKN015 OVC100 24/23 A2997 RMK AO2 CIG 010V023 T02390233
  • 280207Z AUTO 08003KT 10SM BKN009 BKN050 OVC070 24/23 A2997 RMK AO2 LTG DSNT N CIG 005V015 T02440233
  • 280157Z AUTO 00000KT 10SM SCT010 BKN015 OVC070 24/23 A2997 RMK AO2 T02390233
  • 280123Z AUTO 09003KT 10SM BKN013 BKN018 OVC023 24/23 A2997 RMK AO2 T02390228
  • 280053Z AUTO 00000KT 9SM OVC016 24/23 A2996 RMK AO2 LTG DSNT N RAE25 SLP142 P0003 T02390228

TAF KMCB
Valid from the 28 at 03:00 until the 29 at 00:00 UTC


280256Z 2803/2824 00000KT P6SM VCSH BKN006 OVC011
FM280800 13010KT 5SM SHRA BR OVC008
FM281800 13012G22KT 5SM SHRA BR OVC015
FM282200 06015G25KT 3SM RA BR OVC010
KZHU FIR / North America



MET'MAP, your aeronautical weather chart ! - Copyright ORBIFLY December 2007 - Disclaimer

ORBIFLY MET'MAP TEAM :

Programming & Development : Alexandra Zaïnal
Concept & original design : Baudouin d'Aumeries
Assistance for programming : Marc-Olivier Méhu
Technical & hardware support : Manuel Goepfert

Contact : metmap@orbifly.com




SOURCES & CREDITS :

   NOAA       Earth
Advisory